createdAt,value
2018-12-01T00:00:29.742Z,35.03
2018-12-01T00:02:58.684Z,34.97
2018-12-01T00:05:28.178Z,34.23
2018-12-01T00:07:57.291Z,32.67
2018-12-01T00:10:26.579Z,33.30
2018-12-01T00:12:55.224Z,34.43
2018-12-01T00:15:26.104Z,34.47
2018-12-01T00:17:55.285Z,32.97
2018-12-01T00:20:25.274Z,33.97
2018-12-01T00:22:53.884Z,34.63
2018-12-01T00:25:22.429Z,34.10
2018-12-01T00:27:51.040Z,33.07
2018-12-01T00:30:20.559Z,33.20
2018-12-01T00:32:50.039Z,34.07
2018-12-01T00:35:18.614Z,34.43
2018-12-01T00:37:47.162Z,33.37
2018-12-01T00:40:22.556Z,33.57
2018-12-01T00:42:51.205Z,34.27
2018-12-01T00:45:22.886Z,33.40
2018-12-01T00:47:52.623Z,36.70
2018-12-01T00:50:24.179Z,34.97
2018-12-01T00:52:53.672Z,35.70
2018-12-01T00:55:22.830Z,32.97
2018-12-01T00:57:51.388Z,35.43
2018-12-01T01:00:25.295Z,34.70
2018-12-01T01:02:56.594Z,34.47
2018-12-01T01:05:27.271Z,31.67
2018-12-01T01:07:56.586Z,35.57
2018-12-01T01:10:27.159Z,36.23
2018-12-01T01:12:55.723Z,35.80
2018-12-01T01:15:24.467Z,35.30
2018-12-01T01:17:53.101Z,35.07
2018-12-01T01:20:22.856Z,35.43
2018-12-01T01:22:51.783Z,34.87
2018-12-01T01:25:20.390Z,36.70
2018-12-01T01:27:48.947Z,34.00
2018-12-01T01:30:19.555Z,35.33
2018-12-01T01:32:48.510Z,33.90
2018-12-01T01:35:17.111Z,35.93
2018-12-01T01:37:45.807Z,33.60
2018-12-01T01:40:15.634Z,36.27
2018-12-01T01:42:44.273Z,34.10
2018-12-01T01:45:14.158Z,35.27
2018-12-01T01:47:42.790Z,33.07
2018-12-01T01:50:15.420Z,32.73
2018-12-01T01:52:44.658Z,35.47
2018-12-01T01:55:13.316Z,33.30
2018-12-01T01:57:42.293Z,34.90
2018-12-01T02:00:21.013Z,35.67
2018-12-01T02:02:51.699Z,33.77
2018-12-01T02:05:22.338Z,33.70
2018-12-01T02:07:51.199Z,35.67
2018-12-01T02:10:20.825Z,34.10
2018-12-01T02:12:49.500Z,35.17
2018-12-01T02:15:18.042Z,35.27
2018-12-01T02:17:46.628Z,35.83
2018-12-01T02:20:16.652Z,36.07
2018-12-01T02:22:45.643Z,36.77
2018-12-01T02:25:16.335Z,36.20
2018-12-01T02:27:44.979Z,36.80
2018-12-01T02:30:14.817Z,35.83
2018-12-01T02:32:43.498Z,35.70
2018-12-01T02:35:28.991Z,32.23
2018-12-01T02:37:58.696Z,33.87
2018-12-01T02:40:27.219Z,33.07
2018-12-01T02:42:55.887Z,34.87
2018-12-01T02:45:35.808Z,34.40
2018-12-01T02:48:04.652Z,32.30
2018-12-01T02:50:33.182Z,35.30
2018-12-01T02:53:02.032Z,30.90
2018-12-01T02:55:30.794Z,32.60
2018-12-01T02:57:59.366Z,31.17
2018-12-01T03:00:27.992Z,32.00
2018-12-01T03:02:56.560Z,32.77
2018-12-01T03:05:25.128Z,31.97
2018-12-01T03:07:53.915Z,32.30
2018-12-01T03:10:23.093Z,30.50
2018-12-01T03:12:53.849Z,32.17
2018-12-01T03:15:22.463Z,31.40
2018-12-01T03:17:51.982Z,32.07
2018-12-01T03:20:20.757Z,31.50
2018-12-01T03:22:49.352Z,30.60
2018-12-01T03:25:19.128Z,31.43
2018-12-01T03:27:48.605Z,30.80
2018-12-01T03:30:24.052Z,32.23
2018-12-01T03:32:53.625Z,32.97
2018-12-01T03:35:23.274Z,30.13
2018-12-01T03:37:52.408Z,31.47
2018-12-01T03:40:21.934Z,31.43
2018-12-01T03:42:51.346Z,30.17
2018-12-01T03:45:21.063Z,29.43
2018-12-01T03:47:49.638Z,30.90
2018-12-01T03:50:24.074Z,29.73
2018-12-01T03:52:56.754Z,30.10
2018-12-01T03:55:33.738Z,30.37
2018-12-01T03:58:03.031Z,29.20
2018-12-01T04:00:33.314Z,29.63
2018-12-01T04:03:02.640Z,31.13
2018-12-01T04:05:31.710Z,30.13
2018-12-01T04:08:01.052Z,29.03
2018-12-01T04:10:29.666Z,29.40
2018-12-01T04:12:58.331Z,27.47
2018-12-01T04:15:27.335Z,30.07
2018-12-01T04:17:56.071Z,28.47
2018-12-01T04:20:24.662Z,28.50
2018-12-01T04:22:53.230Z,29.77
2018-12-01T04:25:22.022Z,28.57
2018-12-01T04:27:50.658Z,30.40
2018-12-01T04:30:21.340Z,30.23
2018-12-01T04:32:50.066Z,27.70
2018-12-01T04:35:20.706Z,29.47
2018-12-01T04:37:50.404Z,28.50
2018-12-01T04:40:19.082Z,29.30
2018-12-01T04:42:48.786Z,29.43
2018-12-01T04:45:18.101Z,28.93
2018-12-01T04:47:46.989Z,28.77
2018-12-01T04:50:17.510Z,27.10
2018-12-01T04:52:47.113Z,28.00
2018-12-01T04:55:16.862Z,28.77
2018-12-01T04:57:45.418Z,29.90
2018-12-01T05:00:16.122Z,27.70
2018-12-01T05:02:44.818Z,28.33
2018-12-01T05:05:18.754Z,28.83
2018-12-01T05:07:47.335Z,26.97
2018-12-01T05:10:16.798Z,28.27
2018-12-01T05:12:45.427Z,28.63
2018-12-01T05:15:15.960Z,26.40
2018-12-01T05:17:45.086Z,27.97
2018-12-01T05:20:18.766Z,28.47
2018-12-01T05:22:47.525Z,26.73
2018-12-01T05:25:16.201Z,29.47
2018-12-01T05:27:45.473Z,27.40
2018-12-01T05:30:14.183Z,26.87
2018-12-01T05:32:42.900Z,26.87
2018-12-01T05:35:15.776Z,27.50
2018-12-01T05:37:44.427Z,28.17
2018-12-01T05:40:13.735Z,28.10
2018-12-01T05:42:42.343Z,26.53
2018-12-01T05:45:15.325Z,27.37
2018-12-01T05:47:43.896Z,26.03
2018-12-01T05:50:13.600Z,25.37
2018-12-01T05:52:42.155Z,27.07
2018-12-01T05:55:11.906Z,27.17
2018-12-01T05:57:40.529Z,27.27
2018-12-01T06:00:12.284Z,27.77
2018-12-01T06:02:40.915Z,26.60
2018-12-01T06:05:10.401Z,27.27
2018-12-01T06:07:39.138Z,27.40
2018-12-01T06:10:12.915Z,26.07
2018-12-01T06:12:41.783Z,26.17
2018-12-01T06:15:11.698Z,28.07
2018-12-01T06:17:40.584Z,27.00
2018-12-01T06:20:12.473Z,26.50
2018-12-01T06:22:41.182Z,26.87
2018-12-01T06:25:11.234Z,26.67
2018-12-01T06:27:39.790Z,28.40
2018-12-01T06:30:10.995Z,26.00
2018-12-01T06:32:39.626Z,26.10
2018-12-01T06:35:08.376Z,27.80
2018-12-01T06:37:37.012Z,27.57
2018-12-01T06:40:08.755Z,26.23
2018-12-01T06:42:37.658Z,26.53
2018-12-01T06:45:08.863Z,26.80
2018-12-01T06:47:37.392Z,26.37
2018-12-01T06:50:09.255Z,26.97
2018-12-01T06:52:37.840Z,26.63
2018-12-01T06:55:07.864Z,27.13
2018-12-01T06:57:36.399Z,25.97
2018-12-01T07:00:08.313Z,26.03
2018-12-01T07:02:36.878Z,25.20
2018-12-01T07:05:06.650Z,26.60
2018-12-01T07:07:35.855Z,26.00
2018-12-01T07:10:05.519Z,26.20
2018-12-01T07:12:34.094Z,23.13
2018-12-01T07:15:03.393Z,25.43
2018-12-01T07:17:32.083Z,25.67
2018-12-01T07:20:00.595Z,24.40
2018-12-01T07:22:29.192Z,25.23
2018-12-01T07:24:57.714Z,26.70
2018-12-01T07:27:26.964Z,26.13
2018-12-01T07:29:58.089Z,23.77
2018-12-01T07:32:24.111Z,23.87
2018-12-01T07:34:52.753Z,23.50
2018-12-01T07:37:21.350Z,25.73
2018-12-01T07:39:50.162Z,25.50
2018-12-01T07:42:19.401Z,25.77
2018-12-01T07:44:49.295Z,25.17
2018-12-01T07:47:19.082Z,23.87
2018-12-01T07:49:48.240Z,24.30
2018-12-01T07:52:17.125Z,25.73
2018-12-01T07:54:45.826Z,24.43
2018-12-01T07:57:14.885Z,25.23
2018-12-01T07:59:43.263Z,24.87
2018-12-01T08:02:11.892Z,25.13
2018-12-01T08:04:40.536Z,25.40
2018-12-01T08:07:09.167Z,27.03
2018-12-01T08:09:37.752Z,25.37
2018-12-01T08:12:06.342Z,22.67
2018-12-01T08:14:34.953Z,25.17
2018-12-01T08:17:03.639Z,26.03
2018-12-01T08:19:32.274Z,24.57
2018-12-01T08:22:00.845Z,25.30
2018-12-01T08:24:29.390Z,25.70
2018-12-01T08:26:57.945Z,25.47
2018-12-01T08:29:26.561Z,26.30
2018-12-01T08:31:55.165Z,26.37
2018-12-01T08:34:23.739Z,24.47
2018-12-01T08:36:52.397Z,24.60
2018-12-01T08:39:20.928Z,23.70
2018-12-01T08:41:49.495Z,24.73
2018-12-01T08:44:18.010Z,23.50
2018-12-01T08:46:46.674Z,25.37
2018-12-01T08:49:15.322Z,24.50
2018-12-01T08:51:43.934Z,24.93
2018-12-01T08:54:12.468Z,24.10
2018-12-01T08:56:41.052Z,23.90
2018-12-01T08:59:09.847Z,24.63
2018-12-01T09:01:38.472Z,23.80
2018-12-01T09:04:07.063Z,24.80
2018-12-01T09:06:35.686Z,22.90
2018-12-01T09:09:05.666Z,24.50
2018-12-01T09:11:34.235Z,23.00
2018-12-01T09:14:02.966Z,22.87
2018-12-01T09:16:32.514Z,22.13
2018-12-01T09:19:01.096Z,21.10
2018-12-01T09:21:29.755Z,21.57
2018-12-01T09:23:58.378Z,20.73
2018-12-01T09:26:26.986Z,17.77
2018-12-01T09:28:55.580Z,18.20
2018-12-01T09:31:24.205Z,17.63
2018-12-01T09:33:52.923Z,17.57
2018-12-01T09:36:21.542Z,18.90
2018-12-01T09:38:50.088Z,17.37
2018-12-01T09:41:18.618Z,16.53
2018-12-01T09:43:47.197Z,15.67
2018-12-01T09:46:15.771Z,15.03
2018-12-01T09:48:44.434Z,14.90
2018-12-01T09:51:13.179Z,14.03
2018-12-01T09:53:41.685Z,14.33
2018-12-01T09:56:10.279Z,14.33
2018-12-01T09:58:39.964Z,14.97
2018-12-01T10:01:09.423Z,14.80
2018-12-01T10:03:37.998Z,13.40
2018-12-01T10:06:08.755Z,14.93
2018-12-01T10:08:39.055Z,16.07
2018-12-01T10:11:09.960Z,13.63
2018-12-01T10:13:40.993Z,14.17
2018-12-01T10:16:12.220Z,15.33
2018-12-01T10:18:43.405Z,14.87
2018-12-01T10:21:14.218Z,13.73
2018-12-01T10:23:45.101Z,14.17
2018-12-01T10:26:16.271Z,14.17
2018-12-01T10:28:47.537Z,14.30
2018-12-01T10:31:16.782Z,15.00
2018-12-01T10:33:45.381Z,15.20
2018-12-01T10:36:14.602Z,13.53
2018-12-01T10:38:43.153Z,15.40
2018-12-01T10:41:11.676Z,14.50
2018-12-01T10:43:40.350Z,15.47
2018-12-01T10:46:09.010Z,13.10
2018-12-01T10:48:37.695Z,10.90
2018-12-01T10:51:13.394Z,12.27
2018-12-01T10:53:41.919Z,9.13
2018-12-01T10:56:11.150Z,7.40
2018-12-01T10:58:39.710Z,7.57
2018-12-01T11:01:13.622Z,5.80
2018-12-01T11:03:48.145Z,6.83
2018-12-01T11:06:18.144Z,5.83
2018-12-01T11:08:46.811Z,5.27
2018-12-01T11:11:15.505Z,5.13
2018-12-01T11:13:44.135Z,4.13
2018-12-01T11:16:12.746Z,4.07
2018-12-01T11:18:41.312Z,3.73
2018-12-01T11:21:09.891Z,4.00
2018-12-01T11:23:38.604Z,3.13
2018-12-01T11:26:07.315Z,3.20
2018-12-01T11:28:35.942Z,3.73
2018-12-01T11:31:04.962Z,3.23
2018-12-01T11:33:33.563Z,3.63
2018-12-01T11:36:02.182Z,4.53
2018-12-01T11:38:30.873Z,3.83
2018-12-01T11:40:59.451Z,3.03
2018-12-01T11:43:28.567Z,4.17
2018-12-01T11:45:57.078Z,3.50
2018-12-01T11:48:25.854Z,3.70
2018-12-01T11:50:54.452Z,2.77
2018-12-01T11:53:23.051Z,3.13
2018-12-01T11:55:51.601Z,3.53
2018-12-01T11:58:20.198Z,2.80
2018-12-01T12:00:48.863Z,2.50
2018-12-01T12:03:17.388Z,2.37
2018-12-01T12:06:04.034Z,2.50
2018-12-01T12:08:53.321Z,2.07
2018-12-01T12:11:42.880Z,1.80
2018-12-01T12:14:25.982Z,2.03
2018-12-01T12:17:08.926Z,1.80
2018-12-01T12:19:54.249Z,1.33
2018-12-01T12:22:31.396Z,1.43
2018-12-01T12:25:11.435Z,1.97
2018-12-01T12:27:47.588Z,2.33
2018-12-01T12:30:25.930Z,2.37
2018-12-01T12:32:52.879Z,2.40
2018-12-01T12:35:21.416Z,2.17
2018-12-01T12:37:50.331Z,1.73
2018-12-01T12:40:27.605Z,1.60
2018-12-01T12:42:59.869Z,1.60
2018-12-01T12:45:28.651Z,1.40
2018-12-01T12:47:57.184Z,2.00
2018-12-01T12:50:25.913Z,1.77
2018-12-01T12:52:55.539Z,2.03
2018-12-01T12:55:26.016Z,1.60
2018-12-01T12:57:54.714Z,1.73
2018-12-01T13:00:25.175Z,1.77
2018-12-01T13:02:59.117Z,1.80
2018-12-01T13:05:29.235Z,1.67
2018-12-01T13:07:57.858Z,2.10
2018-12-01T13:10:27.381Z,1.40
2018-12-01T13:12:58.199Z,1.13
2018-12-01T13:15:26.959Z,1.50
2018-12-01T13:17:55.494Z,1.60
2018-12-01T13:20:25.041Z,1.40
2018-12-01T13:22:56.907Z,1.30
2018-12-01T13:25:25.666Z,2.20
2018-12-01T13:27:59.919Z,1.30
2018-12-01T13:30:30.599Z,1.67
2018-12-01T13:32:59.523Z,1.17
2018-12-01T13:35:28.235Z,1.47
2018-12-01T13:37:56.934Z,1.50
2018-12-01T13:40:25.553Z,1.20
2018-12-01T13:42:54.096Z,1.77
2018-12-01T13:45:22.707Z,1.97
2018-12-01T13:47:51.646Z,1.63
2018-12-01T13:50:21.343Z,1.97
2018-12-01T13:52:58.115Z,2.30
2018-12-01T13:55:28.292Z,1.80
2018-12-01T13:57:56.837Z,1.80
2018-12-01T14:00:26.619Z,1.83
2018-12-01T14:02:55.167Z,2.10
2018-12-01T14:05:23.830Z,2.10
2018-12-01T14:07:52.366Z,2.27
2018-12-01T14:10:22.205Z,2.10
2018-12-01T14:12:53.202Z,2.60
2018-12-01T14:15:22.987Z,2.37
2018-12-01T14:17:51.671Z,2.70
2018-12-01T14:20:20.685Z,2.70
2018-12-01T14:22:50.287Z,3.20
2018-12-01T14:25:20.708Z,3.40
2018-12-01T14:27:55.771Z,2.87
2018-12-01T14:30:24.930Z,3.63
2018-12-01T14:32:53.656Z,3.73
2018-12-01T14:35:27.212Z,3.80
2018-12-01T14:37:58.472Z,4.17
2018-12-01T14:40:29.176Z,3.90
2018-12-01T14:42:58.464Z,4.57
2018-12-01T14:45:27.922Z,4.50
2018-12-01T14:47:56.997Z,4.40
2018-12-01T14:50:25.577Z,5.27
2018-12-01T14:52:56.408Z,6.13
2018-12-01T14:55:25.120Z,5.10
2018-12-01T14:57:55.086Z,5.33
2018-12-01T15:00:24.850Z,6.00
2018-12-01T15:02:54.735Z,5.77
2018-12-01T15:05:23.823Z,6.20
2018-12-01T15:07:52.458Z,6.13
2018-12-01T15:10:24.813Z,6.80
2018-12-01T15:12:53.896Z,6.60
2018-12-01T15:15:24.906Z,6.40
2018-12-01T15:17:54.074Z,6.00
2018-12-01T15:20:26.791Z,6.00
2018-12-01T15:22:59.798Z,8.30
2018-12-01T15:25:29.713Z,7.47
2018-12-01T15:27:58.549Z,9.53
2018-12-01T15:30:31.109Z,8.87
2018-12-01T15:33:16.603Z,9.67
2018-12-01T15:35:47.919Z,10.67
2018-12-01T15:38:16.771Z,9.17
2018-12-01T15:40:49.082Z,9.73
2018-12-01T15:43:18.388Z,9.90
2018-12-01T15:45:47.050Z,10.20
2018-12-01T15:48:16.044Z,10.67
2018-12-01T15:50:44.628Z,10.87
2018-12-01T15:53:15.497Z,10.53
2018-12-01T15:55:46.151Z,10.40
2018-12-01T15:58:15.204Z,10.73
2018-12-01T16:00:44.434Z,10.67
2018-12-01T16:03:13.067Z,10.03
2018-12-01T16:05:41.770Z,11.20
2018-12-01T16:08:11.340Z,10.17
2018-12-01T16:10:40.562Z,11.00
2018-12-01T16:13:11.226Z,10.70
2018-12-01T16:15:43.368Z,11.83
2018-12-01T16:18:12.353Z,10.67
2018-12-01T16:20:41.947Z,10.13
2018-12-01T16:23:12.047Z,11.60
2018-12-01T16:25:42.104Z,11.20
2018-12-01T16:28:11.963Z,11.93
2018-12-01T16:30:43.216Z,11.10
2018-12-01T16:33:13.767Z,10.87
2018-12-01T16:35:45.808Z,12.07
2018-12-01T16:38:16.210Z,11.90
2018-12-01T16:40:49.570Z,10.40
2018-12-01T16:43:18.351Z,11.23
2018-12-01T16:45:48.267Z,12.10
2018-12-01T16:48:16.853Z,12.00
2018-12-01T16:50:46.714Z,11.57
2018-12-01T16:53:16.987Z,11.90
2018-12-01T16:55:46.360Z,11.40
2018-12-01T16:58:15.861Z,12.80
2018-12-01T17:00:45.094Z,11.93
2018-12-01T17:03:16.946Z,12.87
2018-12-01T17:05:49.880Z,11.67
2018-12-01T17:08:19.874Z,13.27
2018-12-01T17:10:49.724Z,11.97
2018-12-01T17:13:22.599Z,12.33
2018-12-01T17:15:53.112Z,12.53
2018-12-01T17:18:22.531Z,12.83
2018-12-01T17:20:51.578Z,16.43
2018-12-01T17:23:21.074Z,11.47
2018-12-01T17:25:51.061Z,13.47
2018-12-01T17:28:21.692Z,12.70
2018-12-01T17:30:51.558Z,12.33
2018-12-01T17:33:23.080Z,13.83
2018-12-01T17:35:53.790Z,12.07
2018-12-01T17:38:24.096Z,12.53
2018-12-01T17:41:07.098Z,13.40
2018-12-01T17:43:40.653Z,12.57
2018-12-01T17:46:11.051Z,13.57
2018-12-01T17:48:40.816Z,13.87
2018-12-01T17:51:10.564Z,13.13
2018-12-01T17:53:40.803Z,14.47
2018-12-01T17:56:11.118Z,14.10
2018-12-01T17:58:43.018Z,13.33
2018-12-01T18:01:13.508Z,13.37
2018-12-01T18:03:44.941Z,13.53
2018-12-01T18:06:14.806Z,12.97
2018-12-01T18:08:44.592Z,12.80
2018-12-01T18:11:14.677Z,13.47
2018-12-01T18:13:43.945Z,12.70
2018-12-01T18:16:14.556Z,13.53
2018-12-01T18:18:43.861Z,13.60
2018-12-01T18:21:14.146Z,13.40
2018-12-01T18:23:43.808Z,13.73
2018-12-01T18:26:13.354Z,13.63
2018-12-01T18:28:44.871Z,13.43
2018-12-01T18:31:15.983Z,14.17
2018-12-01T18:33:48.305Z,12.73
2018-12-01T18:36:17.379Z,14.23
2018-12-01T18:38:48.519Z,13.30
2018-12-01T18:41:17.942Z,14.03
2018-12-01T18:43:47.320Z,13.83
2018-12-01T18:46:18.368Z,13.27
2018-12-01T18:48:47.681Z,13.77
2018-12-01T18:51:17.756Z,12.87
2018-12-01T18:53:47.687Z,13.37
2018-12-01T18:56:17.525Z,13.77
2018-12-01T18:58:48.169Z,14.07
2018-12-01T19:01:19.377Z,13.40
2018-12-01T19:03:48.702Z,14.37
2018-12-01T19:06:19.327Z,14.13
2018-12-01T19:08:49.777Z,13.87
2018-12-01T19:11:20.334Z,14.30
2018-12-01T19:13:50.586Z,14.40
2018-12-01T19:16:20.857Z,14.20
2018-12-01T19:18:51.108Z,15.20
2018-12-01T19:21:21.591Z,14.03
2018-12-01T19:23:53.000Z,14.60
2018-12-01T19:26:24.008Z,13.97
2018-12-01T19:28:53.263Z,15.67
2018-12-01T19:31:24.094Z,14.17
2018-12-01T19:33:54.607Z,14.80
2018-12-01T19:36:24.847Z,14.97
2018-12-01T19:38:55.475Z,15.47
2018-12-01T19:41:26.338Z,14.63
2018-12-01T19:43:56.344Z,14.87
2018-12-01T19:46:25.912Z,14.87
2018-12-01T19:48:56.885Z,14.63
2018-12-01T19:51:26.351Z,15.00
2018-12-01T19:53:56.056Z,16.33
2018-12-01T19:56:26.268Z,15.97
2018-12-01T19:58:55.736Z,14.90
2018-12-01T20:01:27.519Z,16.33
2018-12-01T20:03:57.187Z,15.60
2018-12-01T20:06:25.790Z,15.93
2018-12-01T20:08:54.430Z,16.53
2018-12-01T20:11:22.970Z,16.67
2018-12-01T20:13:52.483Z,15.77
2018-12-01T20:16:26.124Z,16.60
2018-12-01T20:18:55.308Z,16.53
2018-12-01T20:21:24.510Z,16.63
2018-12-01T20:23:53.157Z,16.17
2018-12-01T20:26:21.668Z,16.30
2018-12-01T20:28:50.823Z,16.17
2018-12-01T20:31:19.398Z,15.93
2018-12-01T20:33:47.958Z,16.83
2018-12-01T20:36:25.737Z,17.30
2018-12-01T20:39:05.822Z,16.53
2018-12-01T20:41:34.451Z,16.67
2018-12-01T20:44:03.013Z,16.97
2018-12-01T20:46:31.642Z,18.17
2018-12-01T20:49:00.500Z,17.90
2018-12-01T20:51:30.466Z,19.50
2018-12-01T20:53:59.263Z,19.87
2018-12-01T20:56:30.305Z,19.23
2018-12-01T20:58:59.089Z,18.97
2018-12-01T21:01:29.013Z,18.83
2018-12-01T21:03:57.555Z,19.03
2018-12-01T21:06:26.159Z,18.33
2018-12-01T21:08:55.889Z,19.33
2018-12-01T21:11:24.444Z,18.93
2018-12-01T21:13:53.440Z,21.03
2018-12-01T21:16:22.311Z,18.93
2018-12-01T21:18:51.315Z,17.80
2018-12-01T21:21:21.155Z,19.83
2018-12-01T21:23:50.049Z,17.77
2018-12-01T21:26:18.651Z,19.20
2018-12-01T21:28:47.224Z,18.47
2018-12-01T21:31:15.832Z,19.20
2018-12-01T21:33:44.432Z,19.47
2018-12-01T21:36:12.982Z,18.60
2018-12-01T21:38:41.640Z,20.00
2018-12-01T21:41:10.865Z,18.10
2018-12-01T21:43:40.043Z,18.70
2018-12-01T21:46:08.859Z,20.37
2018-12-01T21:48:37.447Z,19.90
2018-12-01T21:51:06.092Z,18.23
2018-12-01T21:53:35.686Z,18.93
2018-12-01T21:56:04.520Z,19.50
2018-12-01T21:58:33.183Z,18.27
2018-12-01T22:01:02.590Z,17.93
2018-12-01T22:03:32.033Z,20.20
2018-12-01T22:06:04.711Z,19.50
2018-12-01T22:08:34.087Z,18.53
2018-12-01T22:11:02.787Z,19.03
2018-12-01T22:13:31.348Z,17.37
2018-12-01T22:16:00.002Z,18.83
2018-12-01T22:18:28.630Z,18.73
2018-12-01T22:20:58.134Z,18.43
2018-12-01T22:23:26.737Z,18.77
2018-12-01T22:25:55.460Z,18.00
2018-12-01T22:28:24.038Z,19.53
2018-12-01T22:30:53.406Z,18.07
2018-12-01T22:33:24.977Z,18.70
2018-12-01T22:35:53.735Z,18.63
2018-12-01T22:38:22.887Z,17.77
2018-12-01T22:40:51.623Z,18.83
2018-12-01T22:43:20.659Z,19.27
2018-12-01T22:45:49.456Z,17.50
2018-12-01T22:48:19.798Z,17.77
2018-12-01T22:50:50.359Z,17.53
2018-12-01T22:53:18.957Z,19.17
2018-12-01T22:55:47.793Z,19.47
2018-12-01T22:58:19.588Z,17.83
2018-12-01T23:00:50.682Z,18.13
2018-12-01T23:03:19.774Z,16.80
2018-12-01T23:05:48.397Z,17.63
2018-12-01T23:08:20.375Z,18.50
2018-12-01T23:10:48.961Z,17.47
2018-12-01T23:13:17.487Z,18.10
2018-12-01T23:15:46.095Z,17.33
2018-12-01T23:18:17.213Z,18.23
2018-12-01T23:20:46.850Z,17.80
2018-12-01T23:23:15.496Z,17.17
2018-12-01T23:25:44.199Z,17.83
2018-12-01T23:28:12.881Z,15.87
2018-12-01T23:30:46.355Z,17.50
2018-12-01T23:33:16.782Z,17.97
2018-12-01T23:35:46.223Z,18.40
2018-12-01T23:38:14.759Z,17.50
2018-12-01T23:40:44.319Z,16.43
2018-12-01T23:43:12.896Z,15.90
2018-12-01T23:45:43.051Z,16.17
2018-12-01T23:48:11.740Z,16.50
2018-12-01T23:50:42.892Z,15.40
2018-12-01T23:53:13.175Z,15.93
2018-12-01T23:55:41.759Z,15.17
2018-12-01T23:58:10.325Z,14.87
